Latest Weather Observations for Rocky Gully South

IDW60801

Issued at 9:33 am WST Thursday 1 September 2016 (issued every 30 minutes, with the page automatically refreshed every 10 minutes)

About weather observations | Map of weather stations | Latest weather observations for WA | Other Formats
Station Details ID: 009964 Name: ROCKY GULLY Lat: -34.57 Lon: 117.01 Height: 250.0 m
Data from the previous 72 hours. | See also: Recent months at Rocky Gully South
Date/Time
WST
Temp
°C
App
Temp
°C
Dew
Point
°C
Rel
Hum
%
Delta-T
°C
Wind Press
QNH
hPa
Press
MSL
hPa
Rain since
9am
mm
Dir  Spd
km/h
Gust
km/h
Spd
kts
Gust
kts
01/09:30am 9.7 7.6 6.6 81 1.5 SW 7 11 4 6 - - 0.0
01/09:00am 8.9 6.5 7.0 88 0.9 WSW 9 13 5 7 - - 6.4
01/08:30am 8.3 6.4 6.9 91 0.7 WSW 6 11 3 6 - - 6.4
01/08:00am 7.8 5.9 6.7 93 0.5 W 6 11 3 6 - - 6.4
01/07:30am 6.3 5.2 5.3 93 0.4 CALM 0 0 0 0 - - 6.4
01/07:00am 6.3 5.2 5.3 93 0.4 CALM 0 0 0 0 - - 6.4
01/06:30am 6.6 4.5 5.6 93 0.5 SW 6 11 3 6 - - 6.4
01/06:00am 6.3 4.9 5.3 93 0.4 SW 2 7 1 4 - - 6.4
01/05:30am 6.2 4.4 5.2 93 0.4 WSW 4 7 2 4 - - 6.4
01/05:00am 6.4 5.0 5.4 93 0.4 NW 2 6 1 3 - - 6.4
01/04:30am 6.1 4.6 5.1 93 0.4 W 2 6 1 3 - - 6.4
01/04:00am 5.9 4.0 4.9 93 0.4 WSW 4 7 2 4 - - 6.4
01/03:30am 5.7 3.4 4.7 93 0.4 W 6 9 3 5 - - 6.4
01/03:00am 6.0 4.1 5.0 93 0.4 NW 4 6 2 3 - - 6.4
01/02:30am 6.7 4.6 5.7 93 0.5 NW 6 9 3 5 - - 6.4
01/02:00am 6.7 5.0 5.7 93 0.5 W 4 9 2 5 - - 6.4
01/01:30am 6.5 5.4 5.3 92 0.5 CALM 0 0 0 0 - - 6.4
01/01:00am 7.4 5.4 6.2 92 0.6 S 6 7 3 4 - - 6.4
01/12:30am 6.9 4.8 5.7 92 0.5 SSW 6 11 3 6 - - 6.2
01/12:00am 6.3 4.1 5.1 92 0.5 WSW 6 7 3 4 - - 5.8
 
Date/Time
WST
Temp
°C
App
Temp
°C
Dew
Point
°C
Rel
Hum
%
Delta-T
°C
Wind Press
QNH
hPa
Press
MSL
hPa
Rain since
9am
mm
Dir  Spd
km/h
Gust
km/h
Spd
kts
Gust
kts
31/11:30pm 5.9 3.9 4.5 91 0.6 WSW 4 9 2 5 - - 5.8
31/11:00pm 6.1 4.2 4.7 91 0.6 WNW 4 7 2 4 - - 5.8
31/10:30pm 6.5 5.0 5.0 90 0.7 W 2 9 1 5 - - 5.8
31/10:00pm 6.8 4.6 5.3 90 0.7 WSW 6 9 3 5 - - 5.8
31/09:30pm 7.1 5.0 5.6 90 0.7 SW 6 9 3 5 - - 5.8
31/09:00pm 7.1 4.7 5.4 89 0.8 WSW 7 11 4 6 - - 5.8
31/08:30pm 7.5 5.4 5.6 88 0.9 SW 6 7 3 4 - - 5.8
31/08:00pm 8.0 5.8 6.1 88 0.9 SW 7 11 4 6 - - 5.8
31/07:30pm 8.0 5.8 6.3 89 0.8 SSW 7 11 4 6 - - 5.8
31/07:00pm 8.3 6.4 6.6 89 0.8 SW 6 11 3 6 - - 5.8
31/06:30pm 9.0 7.0 7.3 89 0.8 S 7 13 4 7 - - 5.8
31/06:00pm 9.3 6.2 7.4 88 0.9 S 13 20 7 11 - - 5.8
31/05:30pm 9.7 6.6 7.3 85 1.2 S 13 22 7 12 - - 5.4
31/05:00pm 9.8 6.3 7.4 85 1.2 SSW 15 26 8 14 - - 5.4
31/04:30pm 9.6 5.8 7.5 87 1.0 S 17 24 9 13 - - 5.4
31/04:00pm 9.9 6.6 8.0 88 0.9 S 15 28 8 15 - - 5.2
31/03:30pm 10.7 7.5 8.5 86 1.1 SSW 15 26 8 14 - - 4.8
31/03:00pm 11.9 8.6 8.2 78 1.8 SSW 15 28 8 15 - - 4.0
31/02:30pm 11.3 7.2 8.5 83 1.4 S 20 39 11 21 - - 4.0
31/02:00pm 12.4 8.8 8.5 77 2.0 SSW 17 33 9 18 - - 4.0
31/01:30pm 11.0 7.1 8.8 86 1.1 SSW 19 30 10 16 - - 4.0
31/01:00pm 11.4 7.9 8.6 83 1.4 SSW 17 30 9 16 - - 3.8
31/12:30pm 11.0 7.6 9.3 89 0.9 SSW 17 28 9 15 - - 3.8
31/12:00pm 10.8 7.3 8.9 88 1.0 SSW 17 26 9 14 - - 3.2
31/11:30am 10.4 7.0 9.2 92 0.6 SSW 17 30 9 16 - - 3.2
31/11:00am 10.5 7.5 9.3 92 0.6 SSW 15 22 8 12 - - 2.8
31/10:30am 10.6 8.0 9.4 92 0.6 SSW 13 24 7 13 - - 2.0
31/10:00am 10.6 8.4 9.4 92 0.6 SW 11 20 6 11 - - 1.4
31/09:30am 10.6 9.2 9.4 92 0.6 W 7 17 4 9 - - 0.6
31/09:00am 10.4 8.9 9.2 92 0.6 NW 7 13 4 7 - - 1.4
31/08:30am 10.2 8.3 9.0 92 0.6 NNW 9 17 5 9 - - 1.2
31/08:00am 10.0 8.0 8.8 92 0.6 N 9 15 5 8 - - 0.8
31/07:30am 9.8 7.8 8.6 92 0.6 N 9 15 5 8 - - 0.6
31/07:00am 9.8 7.8 8.6 92 0.6 N 9 17 5 9 - - 0.6
31/06:30am 9.7 7.2 8.3 91 0.7 N 11 17 6 9 - - 0.4
31/06:00am 9.7 7.2 8.3 91 0.7 N 11 19 6 10 - - 0.4
31/05:30am 9.6 7.5 8.2 91 0.7 N 9 13 5 7 - - 0.4
31/05:00am 9.7 7.6 8.1 90 0.8 NNE 9 15 5 8 - - 0.4
31/04:30am 9.7 7.9 8.0 89 0.8 N 7 11 4 6 - - 0.4
31/04:00am 10.0 8.2 7.8 86 1.1 N 7 13 4 7 - - 0.0
31/03:30am 10.3 7.6 7.5 83 1.4 N 11 17 6 9 - - 0.0
31/03:00am 10.3 7.2 7.4 82 1.4 N 13 20 7 11 - - 0.0
31/02:30am 10.1 7.0 7.2 82 1.4 N 13 20 7 11 - - 0.0
31/02:00am 9.8 6.6 6.9 82 1.4 N 13 20 7 11 - - 0.0
31/01:30am 9.7 7.2 6.6 81 1.5 N 9 17 5 9 - - 0.0
31/01:00am 9.9 7.4 6.6 80 1.6 N 9 17 5 9 - - 0.0
31/12:30am 9.7 7.2 6.6 81 1.5 N 9 13 5 7 - - 0.0
31/12:00am 10.0 7.1 6.7 80 1.6 N 11 20 6 11 - - 0.0
 
Date/Time
WST
Temp
°C
App
Temp
°C
Dew
Point
°C
Rel
Hum
%
Delta-T
°C
Wind Press
QNH
hPa
Press
MSL
hPa
Rain since
9am
mm
Dir  Spd
km/h
Gust
km/h
Spd
kts
Gust
kts
30/11:30pm 10.0 7.1 6.7 80 1.6 N 11 17 6 9 - - 0.0
30/11:00pm 10.3 7.5 7.0 80 1.6 N 11 17 6 9 - - 0.0
30/10:30pm 10.4 8.4 6.9 79 1.7 N 7 13 4 7 - - 0.0
30/10:00pm 11.0 9.0 6.9 76 2.0 N 7 11 4 6 - - 0.0
30/09:30pm 11.6 9.2 6.9 73 2.3 N 9 13 5 7 - - 0.0
30/09:00pm 11.7 9.3 7.2 74 2.2 N 9 17 5 9 - - 0.0
30/08:30pm 11.4 9.4 6.9 74 2.2 N 7 11 4 6 - - 0.0
30/08:00pm 11.4 9.3 6.7 73 2.3 NNW 7 9 4 5 - - 0.0
30/07:30pm 11.1 9.3 7.0 76 2.0 N 6 9 3 5 - - 0.0
30/07:00pm 11.4 9.9 6.7 73 2.3 N 4 11 2 6 - - 0.0
30/06:30pm 11.3 10.5 6.4 72 2.3 CALM 0 0 0 0 - - 0.0
30/06:00pm 11.8 11.0 6.3 69 2.6 CALM 0 0 0 0 - - 0.0
30/05:30pm 12.7 10.4 5.6 62 3.4 NNW 7 13 4 7 - - 0.0
30/05:00pm 13.1 10.9 6.0 62 3.4 NNW 7 13 4 7 - - 0.0
30/04:30pm 13.5 10.5 5.9 60 3.6 NW 11 20 6 11 - - 0.0
30/04:00pm 13.7 11.1 6.1 60 3.7 NNW 9 19 5 10 - - 0.0
30/03:30pm 14.1 11.5 6.2 59 3.8 NW 9 19 5 10 - - 0.0
30/03:00pm 14.6 11.8 5.1 53 4.5 NW 9 20 5 11 - - 0.0
30/02:30pm 13.9 10.6 4.8 54 4.3 NW 11 17 6 9 - - 0.0
30/02:00pm 13.7 11.2 4.8 55 4.2 NW 7 17 4 9 - - 0.0
30/01:30pm 13.9 11.6 5.5 57 4.0 NW 7 13 4 7 - - 0.0
30/01:00pm 13.5 10.9 6.1 61 3.6 WNW 9 17 5 9 - - 0.0
30/12:30pm 12.2 9.2 4.2 58 3.7 NW 9 20 5 11 - - 0.0
30/12:00pm 12.4 8.7 4.4 58 3.7 NNW 13 19 7 10 - - 0.0
30/11:30am 11.9 8.2 4.4 60 3.4 NW 13 17 7 9 - - 0.0
30/11:00am 11.3 7.6 4.5 63 3.1 NW 13 20 7 11 - - 0.0
30/10:30am 11.7 8.9 5.3 65 3.0 W 9 15 5 8 - - 0.0
30/10:00am 10.6 7.2 3.9 63 3.0 NNW 11 20 6 11 - - 0.0
30/09:30am 10.1 6.4 4.5 68 2.5 NNW 13 20 7 11 - - 0.0
30/09:00am 9.8 6.5 4.4 69 2.4 NNW 11 17 6 9 - - 0.0
30/08:30am 9.1 6.1 4.3 72 2.1 NW 9 17 5 9 - - 0.0
30/08:00am 8.8 6.3 5.0 77 1.7 NNW 7 13 4 7 - - 0.0
30/07:30am 8.4 6.0 5.2 80 1.5 NW 7 13 4 7 - - 0.0
30/07:00am 8.0 5.8 5.5 84 1.1 NW 6 11 3 6 - - 0.0
30/06:30am 7.9 5.8 5.7 86 1.0 NNW 6 9 3 5 - - 0.0
30/06:00am 7.6 5.3 5.7 88 0.9 NNW 7 9 4 5 - - 0.0
30/05:30am 7.3 5.9 5.4 88 0.9 NNW 2 7 1 4 - - 0.0
30/05:00am 7.2 6.1 5.2 87 0.9 CALM 0 0 0 0 - - 0.0
30/04:30am 7.4 6.0 5.4 87 0.9 NNW 2 7 1 4 - - 0.0
30/04:00am 7.5 5.7 5.6 88 0.9 NW 4 9 2 5 - - 0.0
30/03:30am 7.7 6.0 6.0 89 0.8 NNW 4 7 2 4 - - 0.0
30/03:00am 7.5 5.4 6.0 90 0.7 NNW 6 9 3 5 - - 0.0
30/02:30am 7.7 5.7 6.3 91 0.6 NNW 6 7 3 4 - - 0.0
30/02:00am 7.8 6.2 6.4 91 0.6 NW 4 9 2 5 - - 0.0
30/01:30am 7.9 7.1 6.5 91 0.7 CALM 0 4 0 2 - - 0.0
30/01:00am 7.8 7.0 6.4 91 0.6 CALM 0 0 0 0 - - 0.0
30/12:30am 7.8 7.0 6.4 91 0.6 CALM 0 0 0 0 - - 0.0
30/12:00am 7.8 6.2 6.4 91 0.6 NNW 4 7 2 4 - - 0.0
 
Date/Time
WST
Temp
°C
App
Temp
°C
Dew
Point
°C
Rel
Hum
%
Delta-T
°C
Wind Press
QNH
hPa
Press
MSL
hPa
Rain since
9am
mm
Dir  Spd
km/h
Gust
km/h
Spd
kts
Gust
kts
29/11:30pm 8.0 7.2 6.5 90 0.7 CALM 0 6 0 3 - - 0.0
29/11:00pm 8.1 7.3 6.4 89 0.8 CALM 0 2 0 1 - - 0.0
29/10:30pm 8.1 6.8 6.2 88 0.9 WNW 2 9 1 5 - - 0.0
29/10:00pm 8.1 6.0 5.9 86 1.0 W 6 11 3 6 - - 0.0
29/09:30pm 8.4 6.1 5.7 83 1.2 WSW 7 9 4 5 - - 0.0
29/09:00pm 8.3 6.5 5.4 82 1.3 W 4 9 2 5 - - 0.0
29/08:30pm 8.4 7.3 5.2 80 1.5 CALM 0 0 0 0 - - 0.0
29/08:00pm 8.7 7.5 4.7 76 1.8 CALM 0 0 0 0 - - 0.0
29/07:30pm 8.8 7.1 4.2 73 2.0 WSW 2 6 1 3 - - 0.0
29/07:00pm 8.9 6.5 4.3 73 2.1 SW 6 9 3 5 - - 0.0
29/06:30pm 9.1 6.5 4.1 71 2.2 WSW 7 13 4 7 - - 0.0
29/06:00pm 9.2 6.8 4.2 71 2.2 SW 6 7 3 4 - - 0.0
29/05:30pm 9.7 7.3 5.1 73 2.1 SW 7 15 4 8 - - 0.0
29/05:00pm 10.1 7.7 5.3 72 2.2 SW 7 13 4 7 - - 0.0
29/04:30pm 10.4 8.0 5.4 71 2.3 SW 7 15 4 8 - - 0.0
29/04:00pm 10.5 8.3 6.1 74 2.1 SW 7 15 4 8 - - 0.0
29/03:30pm 10.6 7.6 5.8 72 2.2 WSW 11 20 6 11 - - 0.0
29/03:00pm 10.5 7.1 6.1 74 2.1 SW 13 22 7 12 - - 0.0
29/02:30pm 11.2 8.2 5.9 70 2.5 SW 11 22 6 12 - - 0.0
29/02:00pm 11.0 8.2 6.9 76 2.0 WSW 11 20 6 11 - - 0.0
29/01:30pm 10.4 7.7 7.3 81 1.5 SW 11 19 6 10 - - 0.0
29/01:00pm 11.1 7.5 6.6 74 2.2 SW 15 28 8 15 - - 0.0
29/12:30pm 10.8 8.6 7.9 82 1.4 SW 9 17 5 9 - - 0.0
29/12:00pm 11.0 8.3 7.3 78 1.8 SW 11 17 6 9 - - 0.0
29/11:30am 10.1 7.5 7.9 86 1.1 SW 11 20 6 11 - - 0.0
29/11:00am 9.8 7.2 7.9 88 0.9 SW 11 20 6 11 - - 0.0
29/10:30am 10.2 8.2 8.8 91 0.7 SSW 9 17 5 9 - - 0.0
29/10:00am 9.1 6.1 7.9 92 0.6 SW 13 22 7 12 - - 0.0

Other Formats:

Comma delimited format used in spreadsheet applications
http://www.bom.gov.au/fwo/IDW60801/IDW60801.94631.axf

JavaScript Object Notation format (JSON) in row-major order
http://www.bom.gov.au/fwo/IDW60801/IDW60801.94631.json